Time;durP1;ratioP1;P1;durP2;ratioP2;P2;SDS_P1;SDS_P2;PMS_P1;PMS_P2;Temp;Humidity;BMP_temperature;BMP_pressure;BME280_temperature;BME280_humidity;BME280_pressure;Samples;Min_cycle;Max_cycle;Signal;HPM_P1;HPM_P2
2023/03/17 00:02:32;;;;;;;7.93;4.63;;;;;;;;;;12849089;23;20134;-76
2023/03/17 00:07:33;;;;;;;5.38;4.25;;;;;;;;;;12816793;23;20668;-75
2023/03/17 00:12:35;;;;;;;6.95;3.97;;;;;;;;;;12789049;23;20009;-78
2023/03/17 00:17:36;;;;;;;4.55;4.07;;;;;;;;;;12776114;23;20028;-77
2023/03/17 00:22:38;;;;;;;5.05;3.70;;;;;;;;;;12771590;23;20021;-76
2023/03/17 00:27:39;;;;;;;5.32;4.05;;;;;;;;;;12771671;23;20028;-77
2023/03/17 00:32:39;;;;;;;7.03;3.87;;;;;;;;;;12779829;23;20017;-80
2023/03/17 00:37:40;;;;;;;5.57;3.45;;;;;;;;;;12775204;23;20240;-78
2023/03/17 00:42:42;;;;;;;5.38;3.70;;;;;;;;;;12770410;23;20220;-78
2023/03/17 00:47:46;;;;;;;5.00;3.67;;;;;;;;;;12769018;23;20020;-81
2023/03/17 00:52:51;;;;;;;5.25;3.35;;;;;;;;;;12769930;23;20013;-78
2023/03/17 00:57:59;;;;;;;5.60;3.55;;;;;;;;;;12766885;23;20019;-79
2023/03/17 01:03:03;;;;;;;4.35;2.85;;;;;;;;;;12768200;23;20079;-78
2023/03/17 01:08:04;;;;;;;4.63;2.95;;;;;;;;;;12770732;23;20021;-79
2023/03/17 01:13:06;;;;;;;4.90;2.97;;;;;;;;;;12770252;23;20326;-78
2023/03/17 01:18:08;;;;;;;3.95;2.45;;;;;;;;;;12769310;23;20060;-77
2023/03/17 01:23:09;;;;;;;3.47;2.23;;;;;;;;;;12775127;23;20017;-77
2023/03/17 01:28:13;;;;;;;4.67;2.37;;;;;;;;;;12774676;23;20066;-75
2023/03/17 01:33:14;;;;;;;4.40;2.70;;;;;;;;;;12771435;23;20095;-77
2023/03/17 01:38:16;;;;;;;3.67;2.50;;;;;;;;;;12770668;23;20029;-76
2023/03/17 01:43:21;;;;;;;4.38;2.30;;;;;;;;;;12747408;23;20360;-76
2023/03/17 01:48:23;;;;;;;2.28;2.08;;;;;;;;;;12771508;23;20084;-75
2023/03/17 01:53:25;;;;;;;3.50;2.50;;;;;;;;;;12772423;23;20454;-76
2023/03/17 01:58:28;;;;;;;3.58;2.25;;;;;;;;;;12768681;23;20033;-76
2023/03/17 02:03:28;;;;;;;3.08;2.42;;;;;;;;;;12770394;23;20016;-76
2023/03/17 02:08:29;;;;;;;3.63;2.58;;;;;;;;;;12771866;23;20495;-76
2023/03/17 02:13:30;;;;;;;2.88;2.25;;;;;;;;;;12773342;23;20013;-75
2023/03/17 02:18:31;;;;;;;2.95;2.30;;;;;;;;;;12746803;23;20021;-76
2023/03/17 02:23:31;;;;;;;3.55;2.13;;;;;;;;;;12766326;23;20024;-75
2023/03/17 02:28:33;;;;;;;3.53;2.30;;;;;;;;;;12768580;23;20009;-75
2023/03/17 02:33:33;;;;;;;3.63;2.20;;;;;;;;;;12767373;23;20019;-76
2023/03/17 02:38:34;;;;;;;3.28;2.10;;;;;;;;;;12766845;23;20013;-78
2023/03/17 02:43:34;;;;;;;2.67;2.10;;;;;;;;;;12774853;23;20060;-75
2023/03/17 02:48:36;;;;;;;3.63;2.08;;;;;;;;;;12800428;23;20092;-75
2023/03/17 02:53:37;;;;;;;2.97;2.10;;;;;;;;;;12792622;23;20055;-76
2023/03/17 02:58:38;;;;;;;2.60;1.92;;;;;;;;;;12777072;23;20009;-77
2023/03/17 03:03:39;;;;;;;2.95;2.17;;;;;;;;;;12772224;23;20705;-76
2023/03/17 03:08:39;;;;;;;3.38;2.00;;;;;;;;;;12774989;23;20028;-78
2023/03/17 03:13:40;;;;;;;2.83;2.05;;;;;;;;;;12775159;23;20013;-76
2023/03/17 03:18:40;;;;;;;2.85;2.00;;;;;;;;;;12745673;23;20059;-77
2023/03/17 03:23:42;;;;;;;5.93;2.35;;;;;;;;;;12772368;23;20123;-75
2023/03/17 03:28:42;;;;;;;4.35;2.58;;;;;;;;;;12767270;23;20378;-76
2023/03/17 03:33:43;;;;;;;3.05;2.22;;;;;;;;;;12745825;23;20095;-75
2023/03/17 03:38:44;;;;;;;4.35;2.40;;;;;;;;;;12774778;23;20105;-76
2023/03/17 03:43:44;;;;;;;2.78;2.15;;;;;;;;;;12774986;23;20092;-76
2023/03/17 03:48:45;;;;;;;2.47;2.13;;;;;;;;;;12773373;23;20017;-76
2023/03/17 03:53:47;;;;;;;3.40;2.15;;;;;;;;;;12778116;23;20013;-76
2023/03/17 03:58:48;;;;;;;3.88;2.50;;;;;;;;;;12776664;23;20072;-75
2023/03/17 04:03:48;;;;;;;3.53;2.50;;;;;;;;;;12787821;23;20025;-77
2023/03/17 04:08:49;;;;;;;3.47;2.20;;;;;;;;;;12773439;23;20092;-76
2023/03/17 04:13:52;;;;;;;2.75;2.10;;;;;;;;;;12768727;23;20116;-77
2023/03/17 04:18:53;;;;;;;3.60;2.40;;;;;;;;;;12770071;23;20036;-78
2023/03/17 04:23:54;;;;;;;2.63;2.03;;;;;;;;;;12771642;23;20453;-77
2023/03/17 04:28:54;;;;;;;2.88;2.13;;;;;;;;;;12769017;23;20049;-77
2023/03/17 04:33:55;;;;;;;4.97;2.15;;;;;;;;;;12773049;23;20012;-76
2023/03/17 04:38:56;;;;;;;3.42;2.60;;;;;;;;;;12748241;23;20013;-77
2023/03/17 04:43:57;;;;;;;3.93;2.60;;;;;;;;;;12775128;23;20071;-77
2023/03/17 04:48:57;;;;;;;2.90;2.35;;;;;;;;;;12772519;23;20334;-76
2023/03/17 04:53:59;;;;;;;3.30;2.13;;;;;;;;;;12773162;23;20016;-77
2023/03/17 04:59:00;;;;;;;5.40;2.58;;;;;;;;;;12776327;23;20534;-79
2023/03/17 05:04:02;;;;;;;5.55;2.22;;;;;;;;;;12774670;23;20030;-77
2023/03/17 05:09:04;;;;;;;4.60;2.28;;;;;;;;;;12774957;23;20009;-77
2023/03/17 05:14:05;;;;;;;6.97;3.13;;;;;;;;;;12772809;23;20017;-77
2023/03/17 05:19:07;;;;;;;4.47;2.72;;;;;;;;;;12774898;23;20020;-78
2023/03/17 05:24:08;;;;;;;3.08;2.38;;;;;;;;;;12775647;23;20032;-76
2023/03/17 05:29:08;;;;;;;3.38;2.65;;;;;;;;;;12780096;23;20005;-77
2023/03/17 05:34:09;;;;;;;3.42;2.20;;;;;;;;;;12778265;23;20091;-76
2023/03/17 05:39:09;;;;;;;4.25;2.28;;;;;;;;;;12779725;23;20040;-76
2023/03/17 05:44:09;;;;;;;4.45;2.53;;;;;;;;;;12779694;23;20570;-74
2023/03/17 05:49:12;;;;;;;3.90;2.17;;;;;;;;;;12771236;23;20017;-73
2023/03/17 05:54:14;;;;;;;5.38;2.50;;;;;;;;;;12770229;23;20124;-79
2023/03/17 05:59:17;;;;;;;2.67;2.20;;;;;;;;;;12769195;23;20099;-78
2023/03/17 06:04:19;;;;;;;3.80;2.27;;;;;;;;;;12764625;23;20025;-77
2023/03/17 06:09:19;;;;;;;2.55;2.08;;;;;;;;;;12757872;23;20017;-80
2023/03/17 06:14:20;;;;;;;3.03;2.08;;;;;;;;;;12777542;23;20100;-76
2023/03/17 06:19:20;;;;;;;3.50;2.45;;;;;;;;;;12802284;23;20009;-77
2023/03/17 06:24:20;;;;;;;3.75;2.30;;;;;;;;;;12816353;23;20016;-76
2023/03/17 06:29:21;;;;;;;2.75;2.17;;;;;;;;;;12807440;23;20374;-78
2023/03/17 06:34:26;;;;;;;3.92;2.53;;;;;;;;;;12788550;23;20013;-74
2023/03/17 06:39:26;;;;;;;8.50;4.90;;;;;;;;;;12812959;23;20009;-79
2023/03/17 06:44:27;;;;;;;12.73;5.97;;;;;;;;;;12804638;23;20013;-77
2023/03/17 06:49:28;;;;;;;5.55;3.95;;;;;;;;;;12799431;23;20048;-78
2023/03/17 06:54:31;;;;;;;3.15;2.50;;;;;;;;;;12826438;23;20009;-82
2023/03/17 06:59:34;;;;;;;4.43;2.83;;;;;;;;;;12842314;23;20024;-79
2023/03/17 07:04:36;;;;;;;4.22;2.50;;;;;;;;;;12816510;23;20013;-77
2023/03/17 07:09:38;;;;;;;6.78;2.72;;;;;;;;;;12847021;23;20016;-82
2023/03/17 07:14:39;;;;;;;3.22;2.85;;;;;;;;;;12849612;23;20155;-82
2023/03/17 07:19:40;;;;;;;4.65;3.03;;;;;;;;;;12843061;23;20009;-83
2023/03/17 07:24:42;;;;;;;4.88;3.08;;;;;;;;;;12840669;23;20064;-77
2023/03/17 07:29:44;;;;;;;5.72;3.40;;;;;;;;;;12817508;23;20013;-81
2023/03/17 07:34:46;;;;;;;4.18;3.20;;;;;;;;;;12811968;23;20020;-79
2023/03/17 07:39:47;;;;;;;4.25;2.95;;;;;;;;;;12789904;23;20115;-78
2023/03/17 07:44:47;;;;;;;4.20;2.45;;;;;;;;;;12786501;23;20025;-80
2023/03/17 07:49:52;;;;;;;5.80;3.40;;;;;;;;;;12781820;23;20072;-80
2023/03/17 07:54:52;;;;;;;2.97;2.45;;;;;;;;;;12756918;23;20068;-80
2023/03/17 07:59:54;;;;;;;4.25;3.00;;;;;;;;;;12753989;23;20059;-81
2023/03/17 08:04:56;;;;;;;4.05;2.70;;;;;;;;;;12783408;23;20051;-79
2023/03/17 08:10:02;;;;;;;4.22;2.70;;;;;;;;;;12780058;23;20974;-80
2023/03/17 08:15:05;;;;;;;4.93;2.67;;;;;;;;;;12777663;23;20087;-81
2023/03/17 08:20:28;;;;;;;3.65;2.33;;;;;;;;;;12767956;23;20021;-80
2023/03/17 08:25:32;;;;;;;2.90;2.42;;;;;;;;;;12766498;23;20025;-81
2023/03/17 08:30:38;;;;;;;3.70;2.10;;;;;;;;;;12821897;23;20017;-79
2023/03/17 08:35:43;;;;;;;2.47;1.98;;;;;;;;;;12821699;23;20013;-81
2023/03/17 08:40:49;;;;;;;2.65;2.40;;;;;;;;;;12843811;23;20414;-82
2023/03/17 08:45:51;;;;;;;2.88;2.40;;;;;;;;;;12844022;23;20047;-80
2023/03/17 08:50:55;;;;;;;3.20;2.63;;;;;;;;;;12845676;23;20058;-80
2023/03/17 08:55:58;;;;;;;4.53;2.70;;;;;;;;;;12801831;23;20541;-78
2023/03/17 09:01:01;;;;;;;3.13;2.30;;;;;;;;;;12849966;23;20004;-78
2023/03/17 09:06:05;;;;;;;2.90;2.63;;;;;;;;;;12847123;23;20102;-78
2023/03/17 09:11:09;;;;;;;5.38;2.65;;;;;;;;;;12851775;23;20075;-80
2023/03/17 09:16:09;;;;;;;4.25;2.47;;;;;;;;;;12884123;23;20020;-78
2023/03/17 09:21:13;;;;;;;2.60;2.40;;;;;;;;;;12873264;23;20013;-76
2023/03/17 09:26:14;;;;;;;3.50;2.50;;;;;;;;;;12861471;23;20005;-76
2023/03/17 09:31:14;;;;;;;3.72;2.40;;;;;;;;;;12788935;23;20109;-81
2023/03/17 09:36:18;;;;;;;;;;;;;;;;;;12774055;23;20036;-78
2023/03/17 09:41:19;;;;;;;3.63;2.40;;;;;;;;;;12767961;23;20562;-78
2023/03/17 09:46:24;;;;;;;4.35;2.17;;;;;;;;;;12768126;23;20025;-77
2023/03/17 09:51:27;;;;;;;2.55;2.35;;;;;;;;;;12772635;23;20016;-78
2023/03/17 09:56:30;;;;;;;1.90;1.65;;;;;;;;;;12774492;23;20278;-77
2023/03/17 10:01:33;;;;;;;2.08;1.60;;;;;;;;;;12775764;23;20013;-78
2023/03/17 10:06:37;;;;;;;3.63;1.90;;;;;;;;;;12755017;23;20055;-78
2023/03/17 10:11:41;;;;;;;2.25;1.90;;;;;;;;;;12784881;23;20071;-80
2023/03/17 10:17:02;;;;;;;2.60;1.58;;;;;;;;;;12793870;23;20005;-79
2023/03/17 10:22:05;;;;;;;2.83;1.63;;;;;;;;;;12807360;23;20017;-77
2023/03/17 10:27:06;;;;;;;2.47;1.60;;;;;;;;;;12768444;23;20108;-78
2023/03/17 10:32:09;;;;;;;3.38;1.60;;;;;;;;;;12826630;23;20095;-77
2023/03/17 10:37:28;;;;;;;2.03;1.38;;;;;;;;;;12845084;23;20061;-80
2023/03/17 10:42:46;;;;;;;2.80;1.52;;;;;;;;;;12822905;23;20021;-78
2023/03/17 10:47:47;;;;;;;1.85;1.30;;;;;;;;;;12863995;23;20008;-79
2023/03/17 10:52:56;;;;;;;2.47;1.77;;;;;;;;;;12884294;23;20459;-80
2023/03/17 10:58:16;;;;;;;2.08;1.20;;;;;;;;;;12824649;23;20048;-79
2023/03/17 11:03:26;;;;;;;2.05;1.30;;;;;;;;;;12876224;23;20031;-80
2023/03/17 11:08:38;;;;;;;5.53;3.08;;;;;;;;;;12856860;23;20011;-81
2023/03/17 11:13:38;;;;;;;1.38;1.05;;;;;;;;;;12871188;23;20748;-77
2023/03/17 11:18:42;;;;;;;2.88;1.70;;;;;;;;;;12793070;23;20099;-80
2023/03/17 11:23:45;;;;;;;1.85;1.40;;;;;;;;;;12849208;23;20028;-78
2023/03/17 11:28:59;;;;;;;2.60;1.13;;;;;;;;;;12855387;22;20043;-83
2023/03/17 11:34:05;;;;;;;1.35;1.13;;;;;;;;;;12874751;23;20024;-80
2023/03/17 11:39:16;;;;;;;2.10;1.17;;;;;;;;;;12839560;23;20009;-80
2023/03/17 11:44:39;;;;;;;2.05;1.30;;;;;;;;;;12804998;23;20078;-79
2023/03/17 11:49:43;;;;;;;2.55;1.00;;;;;;;;;;12861037;23;20422;-80
2023/03/17 11:54:51;;;;;;;1.70;1.20;;;;;;;;;;12887596;23;20024;-82
2023/03/17 12:00:31;;;;;;;2.45;1.20;;;;;;;;;;12869701;23;20016;-80
2023/03/17 12:05:33;;;;;;;1.80;1.15;;;;;;;;;;12838551;23;20092;-80
2023/03/17 12:10:44;;;;;;;2.53;1.25;;;;;;;;;;12822662;23;20013;-80
2023/03/17 12:16:04;;;;;;;5.20;1.70;;;;;;;;;;12879510;23;19997;-81
2023/03/17 12:21:17;;;;;;;1.25;1.10;;;;;;;;;;12844558;23;20019;-80
2023/03/17 12:26:31;;;;;;;2.35;1.30;;;;;;;;;;12858855;23;20012;-80
2023/03/17 12:31:38;;;;;;;1.50;1.20;;;;;;;;;;12866228;23;20448;-80
2023/03/17 12:36:47;;;;;;;1.70;1.20;;;;;;;;;;12846478;23;20031;-79
2023/03/17 12:42:06;;;;;;;1.80;1.30;;;;;;;;;;12790385;23;20318;-82
2023/03/17 12:47:17;;;;;;;1.77;1.50;;;;;;;;;;12814841;23;20609;-80
2023/03/17 12:52:20;;;;;;;2.33;1.38;;;;;;;;;;12811940;23;20082;-81
2023/03/17 12:57:25;;;;;;;1.83;1.10;;;;;;;;;;12837947;23;20020;-81
2023/03/17 13:02:27;;;;;;;2.20;1.20;;;;;;;;;;12836048;23;20606;-81
2023/03/17 13:07:46;;;;;;;1.65;0.90;;;;;;;;;;12831696;23;20015;-80
2023/03/17 13:12:46;;;;;;;1.13;1.02;;;;;;;;;;12806254;23;20119;-81
2023/03/17 13:17:47;;;;;;;2.73;1.10;;;;;;;;;;12847866;23;20016;-80
2023/03/17 13:23:21;;;;;;;2.30;1.10;;;;;;;;;;12817483;23;20440;-79
2023/03/17 13:28:48;;;;;;;1.93;1.00;;;;;;;;;;12729504;23;20026;-82
2023/03/17 13:33:50;;;;;;;2.05;1.00;;;;;;;;;;12830155;23;20024;-83
2023/03/17 13:39:10;;;;;;;1.10;1.00;;;;;;;;;;12791982;23;20013;-80
2023/03/17 13:44:31;;;;;;;1.38;0.90;;;;;;;;;;12815098;23;20009;-84
2023/03/17 13:49:35;;;;;;;1.13;1.00;;;;;;;;;;12838339;23;20023;-82
2023/03/17 13:54:41;;;;;;;1.63;1.10;;;;;;;;;;12812688;23;20464;-80
2023/03/17 14:00:01;;;;;;;1.27;1.17;;;;;;;;;;12813259;23;20021;-79
2023/03/17 14:05:07;;;;;;;1.33;1.10;;;;;;;;;;12811222;23;20058;-81
2023/03/17 14:10:15;;;;;;;2.25;1.25;;;;;;;;;;12835327;23;20016;-78
2023/03/17 14:15:31;;;;;;;1.98;1.55;;;;;;;;;;12759012;23;20024;-79
2023/03/17 14:20:32;;;;;;;1.98;1.40;;;;;;;;;;12741865;23;20044;-81
2023/03/17 14:25:33;;;;;;;2.13;1.20;;;;;;;;;;12769431;23;20040;-79
2023/03/17 14:30:35;;;;;;;2.23;1.53;;;;;;;;;;12770668;23;20820;-79
2023/03/17 14:35:37;;;;;;;2.08;0.90;;;;;;;;;;12767680;23;20027;-77
2023/03/17 14:40:38;;;;;;;2.13;1.50;;;;;;;;;;12749583;23;20021;-86
2023/03/17 14:45:48;;;;;;;3.55;1.05;;;;;;;;;;12727694;23;20418;-86
2023/03/17 14:50:52;;;;;;;3.35;1.27;;;;;;;;;;12780463;23;20017;-82
2023/03/17 14:55:53;;;;;;;1.33;1.00;;;;;;;;;;12776974;23;20020;-80
2023/03/17 15:01:16;;;;;;;1.10;0.90;;;;;;;;;;12727566;23;20869;-83
2023/03/17 15:06:25;;;;;;;1.27;1.17;;;;;;;;;;12768643;23;20084;-84
2023/03/17 15:11:39;;;;;;;1.65;1.00;;;;;;;;;;12853915;23;20023;-82
2023/03/17 15:16:42;;;;;;;1.45;1.15;;;;;;;;;;12843982;23;20021;-77
2023/03/17 15:21:43;;;;;;;1.10;0.95;;;;;;;;;;12844713;23;20019;-84
2023/03/17 15:26:45;;;;;;;2.03;1.13;;;;;;;;;;12799731;23;20016;-80
2023/03/17 15:31:46;;;;;;;1.33;0.90;;;;;;;;;;12848810;23;20012;-74
2023/03/17 15:36:46;;;;;;;1.97;1.10;;;;;;;;;;12845752;23;20025;-74
2023/03/17 15:41:47;;;;;;;1.50;0.93;;;;;;;;;;12843011;23;20470;-75
2023/03/17 15:46:47;;;;;;;1.73;1.00;;;;;;;;;;12880422;23;20009;-78
2023/03/17 15:51:48;;;;;;;3.08;1.00;;;;;;;;;;12857657;23;20020;-78
2023/03/17 15:56:54;;;;;;;2.15;1.08;;;;;;;;;;12853318;23;20025;-77
2023/03/17 16:01:55;;;;;;;2.00;1.35;;;;;;;;;;12833084;23;20075;-79
2023/03/17 16:06:56;;;;;;;2.03;1.13;;;;;;;;;;12827473;23;20051;-76
2023/03/17 16:11:56;;;;;;;3.13;1.53;;;;;;;;;;12852871;23;20035;-79
2023/03/17 16:17:00;;;;;;;1.10;1.00;;;;;;;;;;12898008;23;20251;-80
2023/03/17 16:22:00;;;;;;;1.88;1.20;;;;;;;;;;12899049;23;20005;-81
2023/03/17 16:27:13;;;;;;;2.35;1.75;;;;;;;;;;12862259;23;20005;-79
2023/03/17 16:32:14;;;;;;;1.80;1.20;;;;;;;;;;12853944;23;20021;-78
2023/03/17 16:37:15;;;;;;;2.08;1.73;;;;;;;;;;12809728;23;20027;-79
2023/03/17 16:42:18;;;;;;;;;;;;;;;;;;12822355;23;20096;-78
2023/03/17 16:47:19;;;;;;;2.45;1.67;;;;;;;;;;12834760;23;19912;-78
2023/03/17 16:52:41;;;;;;;4.50;1.60;;;;;;;;;;12781909;23;20762;-80
2023/03/17 16:57:45;;;;;;;3.78;1.92;;;;;;;;;;12825060;23;20020;-78
2023/03/17 17:02:53;;;;;;;1.85;1.40;;;;;;;;;;12795822;23;20016;-79
2023/03/17 17:08:01;;;;;;;2.17;1.50;;;;;;;;;;12830712;23;20111;-79
2023/03/17 17:13:08;;;;;;;1.50;1.40;;;;;;;;;;12753366;23;20059;-78
2023/03/17 17:18:14;;;;;;;2.67;1.58;;;;;;;;;;12754304;23;20021;-77
2023/03/17 17:23:18;;;;;;;3.17;1.60;;;;;;;;;;12798619;23;20044;-80
2023/03/17 17:28:45;;;;;;;2.90;1.90;;;;;;;;;;12798973;23;20475;-79
2023/03/17 17:33:49;;;;;;;2.28;1.98;;;;;;;;;;12824721;23;20075;-78
2023/03/17 17:38:55;;;;;;;2.63;1.90;;;;;;;;;;12781350;23;20063;-78
2023/03/17 17:44:07;;;;;;;3.80;2.85;;;;;;;;;;12731338;23;20074;-78
2023/03/17 17:49:10;;;;;;;;;;;;;;;;;;12805547;23;20016;-77
2023/03/17 17:54:19;;;;;;;2.25;1.92;;;;;;;;;;12807094;23;20237;-79
2023/03/17 18:00:15;;;;;;;4.60;2.50;;;;;;;;;;12879924;23;20020;-80
2023/03/17 18:05:21;;;;;;;3.45;2.63;;;;;;;;;;12869231;23;20051;-80
2023/03/17 18:10:47;;;;;;;5.75;3.67;;;;;;;;;;12846746;23;20861;-78
2023/03/17 18:15:56;;;;;;;6.07;3.95;;;;;;;;;;12801591;23;20027;-80
2023/03/17 18:20:56;;;;;;;5.20;3.08;;;;;;;;;;12827930;23;20338;-78
2023/03/17 18:26:01;;;;;;;3.40;2.97;;;;;;;;;;12827822;23;20013;-80
2023/03/17 18:31:04;;;;;;;3.55;2.40;;;;;;;;;;12827040;23;20098;-78
2023/03/17 18:36:10;;;;;;;4.43;3.70;;;;;;;;;;12806829;23;20020;-77
2023/03/17 18:41:14;;;;;;;4.18;3.10;;;;;;;;;;12807213;23;20013;-78
2023/03/17 18:46:38;;;;;;;4.10;2.72;;;;;;;;;;12811435;23;20023;-78
2023/03/17 18:51:53;;;;;;;4.05;2.80;;;;;;;;;;12837016;23;20040;-78
2023/03/17 18:56:55;;;;;;;2.88;2.47;;;;;;;;;;12809200;23;20472;-83
2023/03/17 19:02:40;;;;;;;3.95;3.10;;;;;;;;;;12836809;23;20395;-81
2023/03/17 19:07:59;;;;;;;4.65;2.72;;;;;;;;;;12602934;23;20017;-81
2023/03/17 19:13:30;;;;;;;4.50;3.10;;;;;;;;;;12877305;23;20351;-81
2023/03/17 19:18:48;;;;;;;5.35;3.63;;;;;;;;;;12857013;23;20012;-85
2023/03/17 19:23:57;;;;;;;5.47;3.88;;;;;;;;;;12843611;23;20068;-80
2023/03/17 19:29:00;;;;;;;10.85;6.93;;;;;;;;;;12849930;23;20035;-81
2023/03/17 19:34:08;;;;;;;9.90;6.13;;;;;;;;;;12810827;23;20017;-80
2023/03/17 19:39:12;;;;;;;5.20;4.05;;;;;;;;;;12797289;23;20450;-80
2023/03/17 19:44:47;;;;;;;6.03;4.07;;;;;;;;;;12797109;23;20053;-79
2023/03/17 19:50:29;;;;;;;6.93;5.05;;;;;;;;;;12836490;23;20043;-80
2023/03/17 19:55:45;;;;;;;7.78;4.72;;;;;;;;;;12763305;23;20312;-84
2023/03/17 20:00:47;;;;;;;8.80;6.00;;;;;;;;;;12861258;23;20004;-83
2023/03/17 20:06:04;;;;;;;7.68;5.18;;;;;;;;;;12855084;23;20051;-83
2023/03/17 20:11:41;;;;;;;9.32;6.07;;;;;;;;;;12849458;23;20016;-79
2023/03/17 20:16:46;;;;;;;10.05;6.43;;;;;;;;;;12819887;23;20710;-83
2023/03/17 20:21:49;;;;;;;12.02;7.30;;;;;;;;;;12848827;23;20848;-79
2023/03/17 20:26:53;;;;;;;10.45;7.43;;;;;;;;;;12818322;23;20066;-81
2023/03/17 20:31:55;;;;;;;13.80;9.52;;;;;;;;;;12799389;23;20013;-82
2023/03/17 20:37:03;;;;;;;14.30;8.70;;;;;;;;;;12826232;23;20025;-81
2023/03/17 20:42:13;;;;;;;10.15;7.80;;;;;;;;;;12849205;23;20012;-84
2023/03/17 20:47:13;;;;;;;10.10;6.25;;;;;;;;;;12869218;23;20013;-81
2023/03/17 20:52:40;;;;;;;7.20;4.45;;;;;;;;;;12857192;23;20013;-83
2023/03/17 20:57:48;;;;;;;5.57;3.70;;;;;;;;;;12841790;23;20056;-81
2023/03/17 21:02:49;;;;;;;4.85;2.95;;;;;;;;;;12852911;23;20343;-82
2023/03/17 21:07:52;;;;;;;5.65;3.47;;;;;;;;;;12827070;23;20012;-83
2023/03/17 21:12:54;;;;;;;4.15;3.05;;;;;;;;;;12799051;23;20017;-81
2023/03/17 21:17:57;;;;;;;;;;;;;;;;;;12850481;23;20054;-80
2023/03/17 21:23:08;;;;;;;6.60;4.05;;;;;;;;;;12842337;23;20364;-84
2023/03/17 21:28:10;;;;;;;7.28;4.22;;;;;;;;;;12841474;23;20082;-84
2023/03/17 21:33:16;;;;;;;6.40;4.30;;;;;;;;;;12840955;23;20017;-84
2023/03/17 21:38:18;;;;;;;8.32;6.10;;;;;;;;;;12831274;23;20086;-82
2023/03/17 21:43:20;;;;;;;8.43;5.32;;;;;;;;;;12831484;23;20408;-81
2023/03/17 21:48:22;;;;;;;7.43;5.18;;;;;;;;;;12832506;23;20013;-82
2023/03/17 21:53:25;;;;;;;6.35;4.05;;;;;;;;;;12779260;23;20273;-82
2023/03/17 21:58:52;;;;;;;6.28;4.38;;;;;;;;;;12824751;23;20092;-83
2023/03/17 22:03:55;;;;;;;7.13;4.82;;;;;;;;;;12831175;23;20015;-83
2023/03/17 22:08:55;;;;;;;6.90;4.78;;;;;;;;;;12830104;23;20009;-81
2023/03/17 22:14:01;;;;;;;5.30;3.53;;;;;;;;;;12830166;23;20020;-83
2023/03/17 22:19:03;;;;;;;4.85;3.55;;;;;;;;;;12831676;23;20012;-82
2023/03/17 22:24:06;;;;;;;5.00;3.53;;;;;;;;;;12835910;23;20084;-81
2023/03/17 22:29:12;;;;;;;6.05;4.20;;;;;;;;;;12799977;23;20077;-81
2023/03/17 22:34:16;;;;;;;5.50;3.45;;;;;;;;;;12869196;23;20055;-84
2023/03/17 22:39:19;;;;;;;7.50;4.10;;;;;;;;;;12834980;23;20021;-82
2023/03/17 22:44:26;;;;;;;9.02;4.47;;;;;;;;;;12858777;23;20016;-81
2023/03/17 22:49:27;;;;;;;5.20;3.93;;;;;;;;;;12862628;23;20020;-82
2023/03/17 22:54:28;;;;;;;4.60;3.57;;;;;;;;;;12850772;23;20103;-83
2023/03/17 22:59:28;;;;;;;4.93;3.70;;;;;;;;;;12880503;23;20298;-82
2023/03/17 23:04:34;;;;;;;8.40;4.97;;;;;;;;;;12849649;23;20008;-81
2023/03/17 23:09:37;;;;;;;7.88;5.07;;;;;;;;;;12829529;23;20418;-80
2023/03/17 23:14:40;;;;;;;6.77;4.43;;;;;;;;;;12803342;23;20737;-81
2023/03/17 23:19:42;;;;;;;7.05;4.60;;;;;;;;;;12802730;23;20751;-80
2023/03/17 23:24:45;;;;;;;8.05;5.43;;;;;;;;;;12830375;23;20090;-83
2023/03/17 23:29:48;;;;;;;8.93;5.72;;;;;;;;;;12804044;23;20013;-82
2023/03/17 23:34:53;;;;;;;7.40;5.20;;;;;;;;;;12797600;23;20159;-82
2023/03/17 23:39:55;;;;;;;8.25;5.75;;;;;;;;;;12800918;23;20409;-81
2023/03/17 23:44:58;;;;;;;6.40;4.40;;;;;;;;;;12801677;23;20016;-81
2023/03/17 23:49:59;;;;;;;7.00;5.00;;;;;;;;;;12764108;23;20050;-81
2023/03/17 23:55:00;;;;;;;6.63;5.30;;;;;;;;;;12782347;23;20032;-82
